Time;durP1;ratioP1;P1;durP2;ratioP2;P2;SDS_P1;SDS_P2;PMS_P1;PMS_P2;Temp;Humidity;BMP_temperature;BMP_pressure;BME280_temperature;BME280_humidity;BME280_pressure;Samples;Min_cycle;Max_cycle;Signal;HPM_P1;HPM_P2
2023/10/18 00:01:41;;;;;;;7.87;4.05;;;;;;;23.81;40.80;100033.47;4470946;32;34948;-62
2023/10/18 00:04:10;;;;;;;11.05;4.32;;;;;;;23.81;40.71;100038.94;4485239;32;33565;-61
2023/10/18 00:06:39;;;;;;;8.03;3.93;;;;;;;23.80;41.01;100029.09;4485214;32;33400;-61
2023/10/18 00:11:53;;;;;;;9.10;3.87;;;;;;;23.80;40.89;100020.91;4485051;32;35238;-61
2023/10/18 00:14:20;;;;;;;7.57;4.07;;;;;;;23.79;40.76;100016.53;4485046;32;33741;-62
2023/10/18 00:16:48;;;;;;;8.05;4.30;;;;;;;23.78;40.95;100012.12;4485082;32;34561;-61
2023/10/18 00:19:16;;;;;;;7.20;4.20;;;;;;;23.77;40.95;100005.84;4485069;32;34532;-61
2023/10/18 00:21:44;;;;;;;5.93;3.20;;;;;;;23.77;40.84;100005.84;4484981;32;33883;-62
2023/10/18 00:24:11;;;;;;;6.97;4.00;;;;;;;23.76;40.60;100012.34;4484908;32;33575;-62
2023/10/18 00:26:39;;;;;;;8.25;3.78;;;;;;;23.77;40.79;100021.34;4485014;32;33865;-62
2023/10/18 00:29:07;;;;;;;6.35;3.97;;;;;;;23.77;40.63;100024.09;4485050;32;34760;-61
2023/10/18 00:31:34;;;;;;;7.47;3.97;;;;;;;23.77;40.64;100026.81;4484820;32;33694;-64
2023/10/18 00:34:05;;;;;;;6.65;3.70;;;;;;;23.76;40.85;100022.41;4484949;32;33210;-65
2023/10/18 00:36:33;;;;;;;7.22;4.32;;;;;;;23.77;40.89;100024.09;4484979;32;34397;-65
2023/10/18 00:39:14;;;;;;;7.90;3.90;;;;;;;23.75;40.83;100007.97;4484829;32;33747;-64
2023/10/18 00:41:44;;;;;;;8.30;3.75;;;;;;;23.75;40.75;100013.41;4485114;32;33905;-65
2023/10/18 00:44:13;;;;;;;6.53;4.15;;;;;;;23.76;40.72;100006.06;4484807;32;34397;-62
2023/10/18 00:46:41;;;;;;;7.15;3.87;;;;;;;23.75;40.86;100015.31;4484945;32;33879;-62
2023/10/18 00:49:14;;;;;;;5.30;3.00;;;;;;;23.75;40.88;100001.69;4455072;32;33849;-61
2023/10/18 00:51:43;;;;;;;9.00;4.37;;;;;;;23.75;40.89;100001.69;4468564;32;34202;-62
2023/10/18 00:54:11;;;;;;;6.03;3.47;;;;;;;23.74;40.95;99994.59;4469242;32;33341;-61
2023/10/18 00:56:46;;;;;;;7.43;3.67;;;;;;;23.74;40.86;99994.59;4455129;32;33541;-62
2023/10/18 00:59:26;;;;;;;6.25;3.92;;;;;;;23.72;40.81;99993.94;4467602;32;34497;-65
2023/10/18 01:01:57;;;;;;;6.03;3.65;;;;;;;23.72;40.95;100000.22;4483093;32;33848;-63
2023/10/18 01:04:30;;;;;;;7.85;4.10;;;;;;;23.72;40.87;99988.50;4466546;32;34570;-64
2023/10/18 01:06:59;;;;;;;5.60;3.65;;;;;;;23.72;40.95;99989.34;4483601;32;33863;-63
2023/10/18 01:09:33;;;;;;;6.85;3.37;;;;;;;23.71;40.92;99984.94;4484834;32;34755;-62
2023/10/18 01:12:01;;;;;;;6.57;3.53;;;;;;;23.70;41.04;99977.84;4484963;32;34100;-61
2023/10/18 01:14:28;;;;;;;8.55;3.62;;;;;;;23.70;40.94;99966.12;4484620;32;33583;-61
2023/10/18 01:16:56;;;;;;;6.68;3.87;;;;;;;23.70;40.90;99974.28;4484446;32;33419;-63
2023/10/18 01:19:24;;;;;;;7.65;3.67;;;;;;;23.68;40.89;99969.87;4484984;32;33357;-62
2023/10/18 01:21:52;;;;;;;7.15;3.97;;;;;;;23.68;40.90;99975.31;4484925;32;34084;-61
2023/10/18 01:24:21;;;;;;;5.93;3.90;;;;;;;23.68;40.99;99977.22;4484399;32;33782;-62
2023/10/18 01:26:48;;;;;;;5.43;3.40;;;;;;;23.66;40.94;99966.56;4457930;32;33589;-64
2023/10/18 01:29:16;;;;;;;6.05;3.70;;;;;;;23.66;41.05;99963.00;4484538;32;34970;-62
2023/10/18 01:31:45;;;;;;;8.25;3.45;;;;;;;23.66;40.95;99965.72;4484439;32;34502;-61
2023/10/18 01:34:13;;;;;;;6.00;3.87;;;;;;;23.65;40.95;99975.78;4484404;32;33476;-62
2023/10/18 01:36:41;;;;;;;5.35;3.42;;;;;;;23.66;41.03;99972.00;4484898;32;33802;-61
2023/10/18 01:39:18;;;;;;;8.32;4.10;;;;;;;23.65;40.97;99970.34;4484346;32;34501;-62
2023/10/18 01:41:55;;;;;;;6.70;3.80;;;;;;;23.64;41.03;99963.22;4484522;32;33986;-62
2023/10/18 01:44:30;;;;;;;7.93;4.05;;;;;;;23.64;41.17;99963.22;4484254;32;33644;-61
2023/10/18 01:47:05;;;;;;;5.35;3.10;;;;;;;23.63;41.24;99963.41;4484396;32;33925;-62
2023/10/18 01:49:38;;;;;;;6.80;3.35;;;;;;;23.61;41.10;99963.63;4461045;32;33748;-61
2023/10/18 01:52:08;;;;;;;7.75;3.70;;;;;;;23.62;41.14;99968.03;4483274;32;34881;-62
2023/10/18 01:54:36;;;;;;;5.32;3.20;;;;;;;23.62;41.12;99964.47;4484339;32;33679;-62
2023/10/18 01:57:06;;;;;;;5.37;3.30;;;;;;;23.62;41.07;99967.19;4484275;32;34702;-62
2023/10/18 01:59:36;;;;;;;7.65;4.25;;;;;;;23.62;41.04;99959.03;4483141;32;33972;-63
2023/10/18 02:02:10;;;;;;;6.75;3.30;;;;;;;23.62;41.14;99959.03;4484341;32;35097;-62
2023/10/18 02:04:41;;;;;;;7.15;3.37;;;;;;;23.60;41.03;99970.16;4483172;32;32679;-61
2023/10/18 02:07:21;;;;;;;5.90;3.08;;;;;;;23.60;40.93;99972.03;4484280;32;33834;-62
2023/10/18 02:09:52;;;;;;;4.80;2.95;;;;;;;23.60;41.14;99967.44;4483198;32;33985;-61
2023/10/18 02:12:20;;;;;;;4.90;3.10;;;;;;;23.60;41.13;99966.59;4484292;32;34924;-62
2023/10/18 02:14:48;;;;;;;6.43;3.40;;;;;;;23.59;41.02;99963.00;4484380;32;34353;-61
2023/10/18 02:17:18;;;;;;;5.60;3.10;;;;;;;23.59;41.21;99960.28;4483015;32;33756;-62
2023/10/18 02:19:47;;;;;;;7.28;3.12;;;;;;;23.59;41.20;99964.91;4484238;32;33999;-62
2023/10/18 02:22:16;;;;;;;6.87;3.17;;;;;;;23.59;41.19;99965.72;4484030;32;34089;-61
2023/10/18 02:24:44;;;;;;;6.18;3.15;;;;;;;23.59;41.22;99975.78;4484182;32;33577;-61
2023/10/18 02:27:19;;;;;;;6.57;3.42;;;;;;;23.58;41.13;99966.78;4484073;32;34619;-62
2023/10/18 02:29:51;;;;;;;5.85;3.47;;;;;;;23.57;41.39;99970.59;4484148;32;33990;-61
2023/10/18 02:32:34;;;;;;;5.62;3.28;;;;;;;23.56;41.39;99968.94;4482784;32;33801;-62
2023/10/18 02:35:07;;;;;;;5.40;3.25;;;;;;;23.57;41.20;99976.03;4484210;32;33185;-62
2023/10/18 02:37:35;;;;;;;4.78;3.15;;;;;;;23.56;41.37;99968.09;4484018;32;33616;-61
2023/10/18 02:40:16;;;;;;;7.20;3.42;;;;;;;23.56;41.14;99970.81;4483871;32;33463;-62
2023/10/18 02:42:44;;;;;;;8.00;3.50;;;;;;;23.56;41.14;99977.09;4483932;32;34554;-63
2023/10/18 02:45:13;;;;;;;7.55;3.30;;;;;;;23.55;41.25;99972.72;4484055;32;34404;-61
2023/10/18 02:47:42;;;;;;;6.30;3.63;;;;;;;23.55;41.44;99980.03;4483974;32;33831;-62
2023/10/18 02:50:14;;;;;;;5.28;3.53;;;;;;;23.55;41.28;99975.44;4483825;32;34724;-62
2023/10/18 02:52:43;;;;;;;5.75;3.53;;;;;;;23.55;41.43;99980.88;4483636;32;34608;-61
2023/10/18 02:55:13;;;;;;;5.50;3.27;;;;;;;23.55;41.36;99974.56;4484166;32;33609;-62
2023/10/18 02:57:46;;;;;;;6.35;3.35;;;;;;;23.55;41.41;99970.00;4483867;32;33398;-62
2023/10/18 03:00:17;;;;;;;5.80;3.42;;;;;;;23.54;41.36;99971.03;4483711;32;34038;-62
2023/10/18 03:02:45;;;;;;;7.15;3.55;;;;;;;23.54;41.36;99972.91;4482557;32;34165;-62
2023/10/18 03:05:12;;;;;;;6.55;3.60;;;;;;;23.53;41.37;99971.25;4483624;32;34319;-62
2023/10/18 03:07:41;;;;;;;5.82;3.53;;;;;;;23.52;41.34;99973.16;4483712;32;33421;-62
2023/10/18 03:10:12;;;;;;;6.35;3.62;;;;;;;23.53;41.40;99968.53;4483664;32;34027;-61
2023/10/18 03:12:44;;;;;;;5.72;3.08;;;;;;;23.52;41.31;99959.53;4483496;32;34863;-62
2023/10/18 03:15:18;;;;;;;9.82;3.37;;;;;;;23.52;41.33;99964.97;4470522;32;34355;-62
2023/10/18 03:17:49;;;;;;;4.60;2.97;;;;;;;23.51;41.47;99954.31;4471627;32;34311;-62
2023/10/18 03:20:23;;;;;;;6.93;3.20;;;;;;;23.51;41.36;99963.31;4485564;32;34567;-62
2023/10/18 03:22:52;;;;;;;5.97;3.33;;;;;;;23.51;41.34;99952.41;4485354;32;34049;-62
2023/10/18 03:25:28;;;;;;;8.40;3.78;;;;;;;23.50;41.38;99948.03;4485398;32;33668;-62
2023/10/18 03:28:00;;;;;;;6.57;3.42;;;;;;;23.50;41.37;99956.22;4471960;32;33544;-62
2023/10/18 03:30:44;;;;;;;5.53;3.17;;;;;;;23.49;41.50;99964.59;4471846;31;33929;-63
2023/10/18 03:33:13;;;;;;;8.07;3.28;;;;;;;23.49;41.40;99950.97;4472798;32;33848;-61
2023/10/18 03:35:43;;;;;;;7.03;2.83;;;;;;;23.49;41.31;99957.25;4485825;32;33975;-61
2023/10/18 03:38:17;;;;;;;5.90;3.58;;;;;;;23.48;41.25;99952.84;4485688;32;33559;-61
2023/10/18 03:40:56;;;;;;;8.20;3.28;;;;;;;23.49;41.40;99945.50;4485513;32;33591;-62
2023/10/18 03:43:31;;;;;;;8.45;3.40;;;;;;;23.48;41.31;99941.13;4472311;32;33927;-62
2023/10/18 03:46:29;;;;;;;5.55;2.92;;;;;;;23.47;41.60;99940.31;4472069;32;33573;-62
2023/10/18 03:49:01;;;;;;;4.90;3.05;;;;;;;23.47;41.48;99936.75;4473896;32;33837;-62
2023/10/18 03:51:30;;;;;;;9.27;3.30;;;;;;;23.48;41.37;99938.41;4485307;32;34390;-62
2023/10/18 03:54:00;;;;;;;10.65;3.75;;;;;;;23.47;41.47;99928.59;4482216;32;33887;-61
2023/10/18 03:56:32;;;;;;;5.20;2.90;;;;;;;23.46;41.35;99938.66;4485508;32;33748;-62
2023/10/18 03:59:18;;;;;;;6.28;2.83;;;;;;;23.46;41.36;99944.09;4485047;32;34003;-62
2023/10/18 04:04:36;;;;;;;5.30;2.97;;;;;;;23.46;41.45;99949.53;4485268;32;34849;-62
2023/10/18 04:07:12;;;;;;;6.12;2.92;;;;;;;23.46;41.37;99948.72;4485215;32;33872;-63
2023/10/18 04:09:46;;;;;;;6.07;2.72;;;;;;;23.45;41.49;99941.56;4471829;32;33809;-62
2023/10/18 04:12:22;;;;;;;5.85;3.00;;;;;;;23.44;41.47;99940.75;4485166;32;34791;-63
2023/10/18 04:14:53;;;;;;;6.07;2.90;;;;;;;23.44;41.42;99943.47;4485010;32;34126;-62
2023/10/18 04:17:32;;;;;;;9.98;2.80;;;;;;;23.43;41.44;99942.63;4485164;32;33618;-62
2023/10/18 04:20:22;;;;;;;5.17;3.20;;;;;;;23.42;41.34;99946.41;4472131;32;33996;-62
2023/10/18 04:22:50;;;;;;;;;;;;;;;23.45;41.40;99944.28;4485673;32;33592;-63
2023/10/18 04:25:29;;;;;;;5.75;3.47;;;;;;;23.53;41.38;99955.75;4484896;32;35099;-63
2023/10/18 04:28:00;;;;;;;4.57;2.90;;;;;;;23.45;41.46;99947.84;4484279;32;34349;-62
2023/10/18 04:30:31;;;;;;;4.87;3.00;;;;;;;23.41;41.49;99946.66;4484884;32;34364;-62
2023/10/18 04:33:15;;;;;;;4.95;2.78;;;;;;;23.41;41.47;99952.09;4484906;32;34696;-62
2023/10/18 04:35:46;;;;;;;5.95;2.90;;;;;;;23.40;41.46;99955.84;4472775;32;35046;-62
2023/10/18 04:38:24;;;;;;;9.52;3.35;;;;;;;23.39;41.46;99952.31;4485360;32;34084;-62
2023/10/18 04:40:55;;;;;;;7.05;2.83;;;;;;;23.40;41.65;99951.25;4484910;32;34912;-62
2023/10/18 04:43:27;;;;;;;4.80;2.62;;;;;;;23.41;41.49;99952.09;4458814;32;33966;-64
2023/10/18 04:45:56;;;;;;;11.85;3.28;;;;;;;23.40;41.61;99956.69;4484995;32;34195;-61
2023/10/18 04:51:26;;;;;;;5.25;2.92;;;;;;;23.41;41.58;99952.09;4484875;32;34010;-62
2023/10/18 04:53:57;;;;;;;5.40;2.78;;;;;;;23.39;41.63;99954.19;4484606;32;33788;-62
2023/10/18 04:56:31;;;;;;;6.90;3.10;;;;;;;23.38;41.57;99953.38;4484786;32;33827;-64
2023/10/18 04:59:11;;;;;;;9.68;2.97;;;;;;;23.39;41.74;99954.19;4471243;32;33500;-63
2023/10/18 05:01:56;;;;;;;6.20;3.08;;;;;;;23.39;41.47;99952.31;4482390;32;33961;-61
2023/10/18 05:04:37;;;;;;;6.97;3.30;;;;;;;23.38;41.61;99956.09;4484517;32;34025;-62
2023/10/18 05:07:14;;;;;;;7.68;3.35;;;;;;;23.39;41.74;99948.75;4484742;32;33846;-62
2023/10/18 05:09:43;;;;;;;7.55;3.08;;;;;;;23.39;41.75;99954.19;4480569;31;34337;-61
2023/10/18 05:14:42;;;;;;;5.12;2.90;;;;;;;23.37;41.14;99951.69;4469627;32;33747;-64
2023/10/18 05:17:17;;;;;;;6.60;2.97;;;;;;;23.36;41.12;99952.75;4487195;31;33827;-64
2023/10/18 05:19:45;;;;;;;4.90;2.90;;;;;;;23.38;41.03;99960.69;4499344;31;34388;-64
2023/10/18 05:22:35;;;;;;;6.85;2.90;;;;;;;23.39;40.98;99959.62;4485170;31;34625;-64
2023/10/18 05:27:45;;;;;;;6.70;3.25;;;;;;;23.48;40.75;99963.75;4499482;31;34357;-62
2023/10/18 05:30:25;;;;;;;6.30;3.53;;;;;;;23.40;40.97;99969.47;4485104;31;33549;-63
2023/10/18 05:35:30;;;;;;;6.87;3.17;;;;;;;23.36;41.07;99971.81;4470696;32;33975;-61
2023/10/18 05:38:06;;;;;;;8.60;3.20;;;;;;;23.35;41.09;99972.84;4469915;32;34137;-63
2023/10/18 05:43:31;;;;;;;5.68;3.00;;;;;;;23.37;41.10;99972.66;4484029;32;33793;-62
2023/10/18 05:45:59;;;;;;;6.28;2.87;;;;;;;23.36;41.13;99977.28;4483746;32;33899;-62
2023/10/18 05:48:31;;;;;;;6.93;3.45;;;;;;;23.37;41.19;99968.03;4483791;32;34112;-63
2023/10/18 05:51:05;;;;;;;6.07;3.45;;;;;;;23.37;41.21;99972.66;4483902;32;33656;-64
2023/10/18 05:53:33;;;;;;;5.75;2.97;;;;;;;23.37;41.35;99975.38;4480675;32;33811;-62
2023/10/18 05:56:00;;;;;;;7.00;2.95;;;;;;;23.36;41.36;99969.09;4482575;32;33633;-64
2023/10/18 05:58:28;;;;;;;7.40;2.58;;;;;;;23.36;41.26;99966.38;4483989;32;34820;-63
2023/10/18 06:00:56;;;;;;;5.07;2.78;;;;;;;23.37;40.68;99969.94;4484322;32;33348;-63
2023/10/18 06:03:27;;;;;;;6.20;3.03;;;;;;;23.36;40.74;99965.53;4470185;32;33729;-63
2023/10/18 06:05:58;;;;;;;5.43;3.22;;;;;;;23.36;40.71;99965.53;4470242;32;33923;-64
2023/10/18 06:08:26;;;;;;;9.63;3.40;;;;;;;23.35;40.73;99964.69;4484095;32;34721;-63
2023/10/18 06:10:56;;;;;;;8.27;3.15;;;;;;;23.35;40.45;99977.47;4484431;32;33487;-63
2023/10/18 06:13:27;;;;;;;15.55;4.90;;;;;;;23.33;40.48;99979.59;4484266;32;34605;-64
2023/10/18 06:16:02;;;;;;;15.27;3.92;;;;;;;23.34;40.28;99989.44;4484199;32;34056;-64
2023/10/18 06:18:30;;;;;;;12.77;4.00;;;;;;;23.33;40.15;99991.31;4484262;32;34001;-64
2023/10/18 06:20:59;;;;;;;8.88;3.92;;;;;;;23.32;39.93;99997.00;4483324;32;33240;-64
2023/10/18 06:26:27;;;;;;;7.37;4.10;;;;;;;23.33;39.79;99990.50;4484114;32;34850;-64
2023/10/18 06:28:51;;;;;;;11.27;4.45;;;;;;;23.31;39.82;99998.03;4484344;32;34465;-64
2023/10/18 06:31:21;;;;;;;10.60;5.25;;;;;;;23.32;39.73;100005.16;4483983;32;33554;-64
2023/10/18 06:33:54;;;;;;;11.35;6.55;;;;;;;23.31;39.51;100001.56;4483836;32;34785;-64
2023/10/18 06:36:24;;;;;;;9.68;5.55;;;;;;;23.31;39.44;99998.03;4482406;32;33566;-64
2023/10/18 06:38:52;;;;;;;12.52;5.20;;;;;;;23.31;39.36;100006.19;4468117;32;34845;-64
2023/10/18 06:41:21;;;;;;;7.47;4.72;;;;;;;23.31;39.16;100003.47;4468107;32;33251;-64
2023/10/18 06:43:54;;;;;;;15.75;4.22;;;;;;;23.34;39.48;100008.47;4482993;32;34109;-64
2023/10/18 06:46:28;;;;;;;12.13;4.72;;;;;;;23.34;39.58;100003.88;4483003;32;34796;-64
2023/10/18 06:48:57;;;;;;;9.55;4.62;;;;;;;23.34;39.63;100003.03;4482755;32;34078;-64
2023/10/18 06:51:40;;;;;;;8.07;5.00;;;;;;;23.35;39.67;100007.41;4470338;32;33180;-64
2023/10/18 06:54:15;;;;;;;9.90;4.15;;;;;;;23.35;39.52;100005.53;4469805;32;33809;-64
2023/10/18 06:56:45;;;;;;;9.43;4.80;;;;;;;23.35;39.69;99991.91;4469861;32;33737;-64
2023/10/18 06:59:13;;;;;;;8.98;4.95;;;;;;;23.35;39.66;99996.53;4477482;32;33696;-64
2023/10/18 07:01:59;;;;;;;13.32;5.43;;;;;;;23.37;39.51;99995.28;4483823;32;33467;-64
2023/10/18 07:04:28;;;;;;;8.68;4.87;;;;;;;23.37;39.48;99987.09;4483638;32;34702;-64
2023/10/18 07:06:55;;;;;;;9.00;4.85;;;;;;;23.37;39.52;100000.72;4483713;32;33754;-64
2023/10/18 07:09:26;;;;;;;8.02;4.62;;;;;;;23.37;39.61;100000.72;4469604;32;33939;-64
2023/10/18 07:11:57;;;;;;;8.18;4.35;;;;;;;23.38;39.62;99994.22;4483640;32;34355;-64
2023/10/18 07:14:25;;;;;;;6.90;4.30;;;;;;;23.39;39.54;99992.31;4469918;32;33960;-64
2023/10/18 07:16:55;;;;;;;7.70;3.95;;;;;;;23.39;39.38;99998.59;4483486;32;34183;-64
2023/10/18 07:19:26;;;;;;;10.85;4.57;;;;;;;23.38;39.29;99993.37;4469743;32;34794;-64
2023/10/18 07:21:54;;;;;;;8.77;5.07;;;;;;;23.38;38.65;100005.09;4483434;32;34402;-64
2023/10/18 07:24:32;;;;;;;6.30;4.18;;;;;;;23.37;38.88;100002.59;4483325;32;33505;-64
2023/10/18 07:27:03;;;;;;;11.52;5.18;;;;;;;23.37;38.92;99999.88;4470311;32;34674;-64
2023/10/18 07:29:36;;;;;;;9.18;4.93;;;;;;;23.36;38.41;100004.50;4456763;32;33748;-64
2023/10/18 07:32:07;;;;;;;10.13;4.47;;;;;;;23.35;38.04;100001.97;4483287;32;34470;-64
2023/10/18 07:34:36;;;;;;;6.93;4.22;;;;;;;23.35;38.28;99991.09;4483324;32;34737;-64
2023/10/18 07:37:17;;;;;;;7.85;4.32;;;;;;;23.34;38.66;99995.69;4482639;32;33516;-64
2023/10/18 07:40:08;;;;;;;6.85;3.83;;;;;;;23.35;38.59;99993.81;4473970;31;34232;-64
2023/10/18 07:42:43;;;;;;;7.22;3.87;;;;;;;23.34;38.61;99986.69;4461928;32;33662;-64
2023/10/18 07:45:14;;;;;;;8.73;4.75;;;;;;;23.34;38.51;99990.25;4479537;32;33594;-64
2023/10/18 07:47:42;;;;;;;6.85;4.00;;;;;;;23.32;38.42;99981.50;4482975;32;33873;-64
2023/10/18 07:50:58;;;;;;;10.52;4.43;;;;;;;23.33;38.38;99983.16;4483005;32;33886;-64
2023/10/18 07:52:58;;;;;;;9.15;4.78;;;;;;;23.33;38.36;99985.03;4458525;32;33316;-64
2023/10/18 07:55:36;;;;;;;8.68;4.37;;;;;;;23.34;38.17;99978.53;4483060;32;34635;-64
2023/10/18 07:58:26;;;;;;;7.22;3.75;;;;;;;23.33;38.17;99980.44;4467145;32;33893;-64
2023/10/18 08:03:30;;;;;;;10.38;4.35;;;;;;;23.35;38.13;99970.13;4468923;32;34246;-64
2023/10/18 08:05:59;;;;;;;8.98;4.53;;;;;;;23.34;38.20;99976.63;4455537;32;34747;-64
2023/10/18 08:08:27;;;;;;;7.78;4.90;;;;;;;23.35;38.41;99977.47;4469358;32;34162;-64
2023/10/18 08:10:55;;;;;;;7.75;3.87;;;;;;;23.35;38.58;99978.31;4455457;32;34849;-64
2023/10/18 08:13:28;;;;;;;8.70;4.65;;;;;;;23.35;38.61;99982.91;4469446;32;33391;-64
2023/10/18 08:15:56;;;;;;;10.48;4.20;;;;;;;23.35;38.60;99977.47;4469306;32;33986;-63
2023/10/18 08:18:42;;;;;;;8.93;4.25;;;;;;;23.34;38.71;99976.63;4469500;32;34100;-64
2023/10/18 08:21:25;;;;;;;11.50;5.10;;;;;;;23.33;38.68;99974.16;4469262;32;34191;-64
2023/10/18 08:23:56;;;;;;;7.85;3.97;;;;;;;23.33;38.50;99968.72;4469324;32;33160;-64
2023/10/18 08:26:27;;;;;;;9.40;3.92;;;;;;;23.31;38.71;99966.19;4455511;32;33844;-64
2023/10/18 08:28:55;;;;;;;8.60;4.43;;;;;;;23.30;38.64;99966.41;4469385;32;33785;-64
2023/10/18 08:31:35;;;;;;;8.55;4.75;;;;;;;23.29;38.51;99965.59;4469681;32;34128;-63
2023/10/18 08:34:05;;;;;;;9.23;4.18;;;;;;;23.28;38.29;99961.19;4477652;32;34722;-64
2023/10/18 08:36:33;;;;;;;9.48;4.35;;;;;;;23.27;38.25;99964.13;4484995;32;34573;-64
2023/10/18 08:39:01;;;;;;;10.02;4.70;;;;;;;23.27;38.33;99959.53;4484734;32;33926;-64
2023/10/18 08:41:33;;;;;;;8.55;4.55;;;;;;;23.26;38.33;99959.75;4484914;32;35044;-64
2023/10/18 08:44:19;;;;;;;6.47;3.92;;;;;;;23.25;38.38;99950.75;4484972;32;33372;-64
2023/10/18 08:47:12;;;;;;;7.72;4.15;;;;;;;23.26;38.28;99957.84;4484817;32;34690;-64
2023/10/18 08:49:50;;;;;;;8.75;3.97;;;;;;;23.24;38.25;99953.69;4484786;32;34839;-64
2023/10/18 08:52:23;;;;;;;7.37;4.43;;;;;;;23.22;38.32;99953.06;4484954;32;34965;-64
2023/10/18 08:54:51;;;;;;;7.93;4.07;;;;;;;23.22;38.29;99942.19;4483968;32;33514;-64
2023/10/18 08:57:35;;;;;;;6.95;4.35;;;;;;;23.22;38.28;99950.34;4470638;32;34703;-64
2023/10/18 09:02:53;;;;;;;13.60;4.40;;;;;;;23.20;38.37;99947.03;4471987;32;34172;-64
2023/10/18 09:05:25;;;;;;;10.23;4.50;;;;;;;23.20;38.49;99952.47;4479167;32;33788;-64
2023/10/18 09:07:53;;;;;;;8.55;4.37;;;;;;;23.19;38.54;99942.66;4484669;32;34755;-64
2023/10/18 09:10:33;;;;;;;7.53;4.00;;;;;;;23.19;38.47;99937.19;4481798;32;34583;-64
2023/10/18 09:15:54;;;;;;;9.10;4.43;;;;;;;23.18;37.92;99939.09;4484482;32;34834;-62
2023/10/18 09:18:31;;;;;;;8.10;4.70;;;;;;;23.15;37.62;99915.03;4472060;32;34066;-64
2023/10/18 09:23:40;;;;;;;6.53;4.00;;;;;;;23.12;38.29;99924.44;4471395;32;34206;-63
2023/10/18 09:26:18;;;;;;;7.70;3.90;;;;;;;23.12;38.18;99940.78;4470224;32;33350;-62
2023/10/18 09:28:46;;;;;;;5.62;3.30;;;;;;;23.11;38.28;99939.13;4471468;32;34628;-64
2023/10/18 09:31:21;;;;;;;8.63;3.55;;;;;;;23.09;38.31;99938.53;4484595;32;34977;-64
2023/10/18 09:33:56;;;;;;;6.37;3.85;;;;;;;23.10;38.32;99931.19;4483262;32;34837;-63
2023/10/18 09:36:24;;;;;;;9.02;4.40;;;;;;;23.09;38.34;99930.38;4470921;32;34434;-64
2023/10/18 09:38:53;;;;;;;11.73;4.22;;;;;;;23.09;38.38;99930.38;4470351;32;33990;-64
2023/10/18 09:41:21;;;;;;;6.75;3.65;;;;;;;23.08;38.42;99928.69;4484576;32;34117;-64
2023/10/18 09:43:49;;;;;;;6.45;3.75;;;;;;;23.07;38.41;99928.91;4484314;32;34002;-64
2023/10/18 09:46:16;;;;;;;8.98;3.60;;;;;;;23.07;38.42;99937.91;4478102;32;33309;-62
2023/10/18 09:48:45;;;;;;;7.07;3.25;;;;;;;23.06;38.46;99928.06;4467307;32;33828;-63
2023/10/18 09:51:15;;;;;;;7.72;3.65;;;;;;;23.06;38.52;99932.69;4484239;32;34070;-62
2023/10/18 09:54:07;;;;;;;6.62;3.62;;;;;;;23.06;38.54;99921.78;4470144;32;34634;-63
2023/10/18 09:56:34;;;;;;;7.10;3.40;;;;;;;23.08;38.54;99925.97;4456473;32;33667;-63
2023/10/18 09:59:08;;;;;;;6.75;3.62;;;;;;;23.06;38.57;99922.63;4475944;32;34832;-62
2023/10/18 10:02:19;;;;;;;7.03;3.78;;;;;;;23.06;38.62;99927.25;4481968;32;33750;-64
2023/10/18 10:04:33;;;;;;;6.32;3.33;;;;;;;23.04;38.65;99922.03;4458299;32;34165;-62
2023/10/18 10:09:48;;;;;;;6.82;3.00;;;;;;;23.04;38.70;99904.88;4472474;32;34793;-62
2023/10/18 10:12:16;;;;;;;8.23;3.05;;;;;;;23.03;38.73;99911.34;4480885;32;34160;-62
2023/10/18 10:14:44;;;;;;;7.43;3.60;;;;;;;23.02;38.76;99899.63;4476070;32;34473;-65
2023/10/18 10:17:17;;;;;;;6.55;3.33;;;;;;;23.02;38.80;99901.53;4468610;32;34366;-63
2023/10/18 10:19:53;;;;;;;7.03;3.50;;;;;;;23.03;38.80;99900.47;4471091;32;33616;-64
2023/10/18 10:22:25;;;;;;;7.00;3.17;;;;;;;23.02;38.83;99893.34;4456340;32;33821;-64
2023/10/18 10:25:00;;;;;;;6.25;3.17;;;;;;;23.02;38.84;99890.62;4463594;32;33852;-63
2023/10/18 10:27:49;;;;;;;5.15;2.92;;;;;;;23.01;38.83;99887.09;4478973;32;34565;-64
2023/10/18 10:32:52;;;;;;;6.87;3.35;;;;;;;23.00;38.87;99879.97;4462536;32;34058;-63
2023/10/18 10:35:25;;;;;;;5.78;3.08;;;;;;;23.01;38.90;99883.53;4473958;32;32795;-64
2023/10/18 10:37:53;;;;;;;7.07;3.10;;;;;;;23.01;38.91;99881.63;4469581;32;33587;-63
2023/10/18 10:43:03;;;;;;;7.28;3.17;;;;;;;23.00;38.97;99865.53;4451024;32;33638;-64
2023/10/18 10:50:52;;;;;;;6.40;3.30;;;;;;;23.00;38.99;99858.22;4483793;32;34477;-64
2023/10/18 10:53:30;;;;;;;5.70;3.05;;;;;;;22.99;39.00;99853.84;4473856;32;33984;-63
2023/10/18 10:56:01;;;;;;;6.22;3.25;;;;;;;22.99;39.03;99859.28;4470240;32;34962;-63
2023/10/18 10:58:38;;;;;;;5.15;2.87;;;;;;;22.97;39.06;99849.66;4469797;32;33760;-64
2023/10/18 11:01:07;;;;;;;5.80;3.33;;;;;;;22.98;39.06;99849.41;4448649;32;34004;-64
2023/10/18 11:03:54;;;;;;;6.83;3.40;;;;;;;23.00;39.06;99841.06;4463964;32;34050;-64
2023/10/18 11:06:32;;;;;;;4.75;2.67;;;;;;;22.98;39.07;99846.69;4467786;32;34869;-64
2023/10/18 11:09:00;;;;;;;6.28;2.90;;;;;;;22.97;39.13;99836.88;4483713;32;34978;-63
2023/10/18 11:11:29;;;;;;;5.95;2.85;;;;;;;22.97;39.12;99831.44;4478277;32;33512;-65
2023/10/18 11:13:56;;;;;;;6.05;3.10;;;;;;;22.97;39.12;99828.72;4464451;32;33865;-64
2023/10/18 11:16:24;;;;;;;4.43;2.80;;;;;;;22.97;39.14;99827.88;4469736;32;34213;-64
2023/10/18 11:18:52;;;;;;;4.70;2.62;;;;;;;22.96;39.15;99823.50;4474686;32;34300;-64
2023/10/18 11:21:29;;;;;;;6.05;2.92;;;;;;;22.97;39.16;99819.72;4469429;32;33599;-65
2023/10/18 11:23:59;;;;;;;5.72;3.03;;;;;;;22.96;39.16;99816.16;4467893;32;33972;-64
2023/10/18 11:26:27;;;;;;;5.40;2.70;;;;;;;22.97;39.16;99809.66;4471236;32;33869;-63
2023/10/18 11:28:59;;;;;;;4.87;2.60;;;;;;;22.97;39.17;99811.56;4483392;32;34277;-64
2023/10/18 11:31:27;;;;;;;4.80;3.00;;;;;;;22.96;39.19;99813.44;4477127;32;33885;-64
2023/10/18 11:34:07;;;;;;;6.00;3.05;;;;;;;22.96;39.20;99799.00;4469458;32;33640;-63
2023/10/18 11:36:35;;;;;;;5.07;3.17;;;;;;;22.95;39.22;99798.19;4484104;32;34053;-64
2023/10/18 11:41:44;;;;;;;5.57;2.92;;;;;;;22.96;39.22;99786.25;4495689;31;33654;-62
2023/10/18 11:44:16;;;;;;;4.68;2.58;;;;;;;22.96;39.25;99786.25;4497856;31;34827;-65
2023/10/18 11:46:49;;;;;;;5.68;2.72;;;;;;;22.95;39.29;99781.84;4460176;32;33997;-65
2023/10/18 11:49:19;;;;;;;5.47;2.75;;;;;;;22.96;39.30;99782.69;4484464;32;34590;-64
2023/10/18 11:51:48;;;;;;;4.53;2.67;;;;;;;22.95;39.31;99778.31;4468600;32;33570;-64
2023/10/18 11:54:35;;;;;;;4.53;2.33;;;;;;;22.96;39.29;99777.25;4460253;32;34868;-62
2023/10/18 11:57:06;;;;;;;6.20;3.12;;;;;;;22.98;39.28;99769.69;4484406;32;33776;-63
2023/10/18 11:59:52;;;;;;;6.22;2.90;;;;;;;22.95;39.33;99779.13;4469206;32;33330;-62
2023/10/18 12:02:21;;;;;;;4.12;2.45;;;;;;;22.96;39.33;99767.19;4454974;32;34378;-64
2023/10/18 12:04:49;;;;;;;3.97;2.60;;;;;;;22.94;39.34;99772.00;4469504;32;34783;-64
2023/10/18 12:07:16;;;;;;;5.07;2.78;;;;;;;22.94;39.36;99768.47;4479364;32;34765;-65
2023/10/18 12:09:45;;;;;;;5.43;2.55;;;;;;;22.94;39.39;99763.00;4484372;32;33826;-63
2023/10/18 12:12:13;;;;;;;4.87;2.53;;;;;;;22.94;39.39;99768.47;4481852;32;33826;-62
2023/10/18 12:14:41;;;;;;;4.60;2.53;;;;;;;22.94;39.35;99755.69;4469279;32;33708;-64
2023/10/18 12:17:10;;;;;;;4.50;2.47;;;;;;;22.95;39.38;99759.25;4471742;32;35412;-64
2023/10/18 12:19:37;;;;;;;4.83;2.50;;;;;;;22.94;39.39;99743.97;4469773;32;34309;-61
2023/10/18 12:22:07;;;;;;;4.37;2.20;;;;;;;22.96;39.37;99748.16;4477192;31;33845;-62
2023/10/18 12:24:35;;;;;;;4.20;2.45;;;;;;;22.95;39.41;99741.03;4500709;31;34659;-64
2023/10/18 12:27:18;;;;;;;4.97;2.70;;;;;;;22.94;39.41;99739.34;4500727;31;34824;-61
2023/10/18 12:29:45;;;;;;;6.12;2.42;;;;;;;22.94;39.42;99736.63;4493444;31;33534;-61
2023/10/18 12:32:19;;;;;;;5.07;2.92;;;;;;;22.94;39.44;99730.38;4469256;32;34676;-63
2023/10/18 12:34:56;;;;;;;6.50;2.95;;;;;;;22.92;39.46;99727.88;4485397;31;34064;-62
2023/10/18 12:37:24;;;;;;;5.20;2.40;;;;;;;22.92;39.47;99712.37;4500776;31;34846;-62
2023/10/18 12:39:57;;;;;;;5.37;2.45;;;;;;;22.92;39.48;99712.37;4486537;31;34393;-62
2023/10/18 12:42:32;;;;;;;5.45;2.47;;;;;;;22.92;39.51;99715.09;4487122;31;33799;-64
2023/10/18 12:45:08;;;;;;;5.28;2.37;;;;;;;22.92;39.51;99709.66;4475192;31;33716;-64